Time;durP1;ratioP1;P1;durP2;ratioP2;P2;SDS_P1;SDS_P2;PMS_P1;PMS_P2;Temp;Humidity;BMP_temperature;BMP_pressure;BME280_temperature;BME280_humidity;BME280_pressure;Samples;Min_cycle;Max_cycle;Signal;HPM_P1;HPM_P2
2022/04/01 00:00:02;;;;;;;9.63;8.83;;;4.30;99.90;;;;;;5093299;28;20568;-84
2022/04/01 00:02:31;;;;;;;9.43;8.50;;;4.40;99.90;;;;;;5093099;28;20788;-83
2022/04/01 00:04:58;;;;;;;10.07;8.90;;;4.30;99.90;;;;;;5093236;28;20443;-82
2022/04/01 00:07:26;;;;;;;10.03;9.03;;;4.30;99.90;;;;;;5093374;28;20438;-85
2022/04/01 00:09:53;;;;;;;9.83;8.93;;;4.30;99.90;;;;;;5093376;28;20430;-82
2022/04/01 00:12:25;;;;;;;11.30;10.48;;;4.30;99.90;;;;;;5092491;28;20449;-82
2022/04/01 00:14:52;;;;;;;10.20;9.30;;;4.50;99.90;;;;;;5092760;28;20214;-80
2022/04/01 00:17:19;;;;;;;9.97;9.17;;;4.60;99.90;;;;;;5093554;28;20474;-78
2022/04/01 00:19:47;;;;;;;10.33;9.40;;;4.60;99.90;;;;;;5092622;28;20862;-77
2022/04/01 00:22:14;;;;;;;9.57;8.77;;;4.60;99.90;;;;;;5093539;28;20434;-73
2022/04/01 00:24:41;;;;;;;9.93;9.13;;;4.60;99.90;;;;;;5093530;28;20445;-81
2022/04/01 00:27:08;;;;;;;10.17;9.37;;;4.60;99.90;;;;;;5093407;28;20433;-79
2022/04/01 00:29:36;;;;;;;11.63;10.73;;;4.50;99.90;;;;;;5092764;28;20466;-85
2022/04/01 00:32:03;;;;;;;12.03;11.03;;;4.50;99.90;;;;;;5093524;28;20421;-85
2022/04/01 00:34:32;;;;;;;12.90;11.80;;;4.50;99.90;;;;;;5093619;28;20189;-84
2022/04/01 00:37:02;;;;;;;14.37;12.97;;;4.40;99.90;;;;;;5093455;28;20805;-82
2022/04/01 00:39:31;;;;;;;14.17;12.77;;;4.40;99.90;;;;;;5093054;28;20485;-81
2022/04/01 00:42:03;;;;;;;13.90;12.70;;;4.50;99.90;;;;;;5092787;28;20450;-83
2022/04/01 00:44:33;;;;;;;14.50;13.07;;;4.40;99.90;;;;;;5092993;28;20936;-83
2022/04/01 00:47:03;;;;;;;12.03;10.37;;;4.30;99.90;;;;;;5092830;28;20438;-85
2022/04/01 00:49:31;;;;;;;11.13;7.77;;;4.10;99.90;;;;;;5093105;28;20434;-83
2022/04/01 00:52:00;;;;;;;8.93;8.13;;;3.90;99.90;;;;;;5093330;28;20453;-78
2022/04/01 00:54:28;;;;;;;11.15;10.15;;;3.80;99.90;;;;;;5092404;28;20434;-80
2022/04/01 00:56:56;;;;;;;8.03;7.43;;;3.80;99.90;;;;;;5092841;28;20198;-81
2022/04/01 00:59:25;;;;;;;8.40;7.53;;;3.70;99.90;;;;;;5092808;28;21004;-81
2022/04/01 01:01:52;;;;;;;8.33;7.63;;;3.70;99.90;;;;;;5093096;28;20426;-84
2022/04/01 01:04:20;;;;;;;8.53;7.57;;;3.80;99.90;;;;;;5092906;28;20536;-73
2022/04/01 01:06:52;;;;;;;8.30;7.50;;;3.80;99.90;;;;;;5092680;28;20442;-84
2022/04/01 01:09:20;;;;;;;8.50;7.67;;;3.70;99.90;;;;;;5092894;28;20442;-83
2022/04/01 01:11:52;;;;;;;8.60;7.47;;;3.60;99.90;;;;;;5092903;28;20428;-83
2022/04/01 01:14:26;;;;;;;7.37;6.67;;;3.70;99.90;;;;;;5092522;28;20439;-84
2022/04/01 01:16:53;;;;;;;7.03;5.90;;;3.60;99.90;;;;;;5094745;28;20449;-82
2022/04/01 01:19:21;;;;;;;6.40;5.80;;;3.50;99.90;;;;;;5096251;28;20835;-80
2022/04/01 01:21:52;;;;;;;5.60;5.10;;;3.40;99.90;;;;;;5096119;28;20523;-86
2022/04/01 01:24:36;;;;;;;5.17;4.70;;;3.40;99.90;;;;;;5095936;28;20434;-79
2022/04/01 01:27:05;;;;;;;6.27;5.10;;;3.40;99.90;;;;;;5096043;28;20498;-81
2022/04/01 01:29:33;;;;;;;5.47;4.77;;;3.40;99.90;;;;;;5096049;28;20495;-78
2022/04/01 01:32:02;;;;;;;6.37;4.63;;;3.40;99.90;;;;;;5095995;28;20828;-77
2022/04/01 01:34:33;;;;;;;5.03;4.60;;;3.20;99.90;;;;;;5095896;28;20503;-79
2022/04/01 01:37:01;;;;;;;7.18;6.32;;;3.10;99.90;;;;;;5094850;28;20555;-82
2022/04/01 01:39:29;;;;;;;5.57;4.87;;;3.00;99.90;;;;;;5095819;28;20216;-80
2022/04/01 01:41:57;;;;;;;4.77;4.37;;;3.00;99.90;;;;;;5095762;28;20532;-84
2022/04/01 01:44:24;;;;;;;5.17;4.67;;;3.00;99.90;;;;;;5096115;28;20466;-82
2022/04/01 01:46:52;;;;;;;5.20;4.70;;;2.90;99.90;;;;;;5095979;28;20434;-80
2022/04/01 01:49:21;;;;;;;5.00;4.50;;;2.80;99.90;;;;;;5095983;28;20442;-83
2022/04/01 01:54:44;;;;;;;5.27;4.77;;;2.70;99.90;;;;;;5095576;28;20413;-80
2022/04/01 01:57:15;;;;;;;4.70;4.30;;;2.70;99.90;;;;;;5095532;28;20418;-83
2022/04/01 01:59:42;;;;;;;6.27;4.80;;;2.70;99.90;;;;;;5095584;28;20224;-83
2022/04/01 02:02:10;;;;;;;4.93;4.53;;;2.70;99.90;;;;;;5097237;28;20460;-81
2022/04/01 02:04:40;;;;;;;4.90;4.43;;;2.70;99.90;;;;;;5107894;28;20516;-81
2022/04/01 02:07:07;;;;;;;4.93;4.43;;;2.70;99.90;;;;;;5108517;28;20434;-77
2022/04/01 02:09:35;;;;;;;5.43;4.23;;;2.60;99.90;;;;;;5108931;28;20426;-81
2022/04/01 02:12:03;;;;;;;4.73;4.23;;;2.70;99.90;;;;;;5110117;28;20485;-79
2022/04/01 02:14:31;;;;;;;4.27;3.97;;;2.70;99.90;;;;;;5109877;28;20440;-81
2022/04/01 02:16:58;;;;;;;6.63;4.40;;;2.70;99.90;;;;;;5096300;28;20422;-84
2022/04/01 02:19:25;;;;;;;4.57;4.18;;;2.70;99.90;;;;;;5094435;28;20902;-82
2022/04/01 02:21:54;;;;;;;3.90;3.60;;;2.60;99.90;;;;;;5095735;28;20212;-80
2022/04/01 02:24:22;;;;;;;6.17;4.30;;;2.60;99.90;;;;;;5094640;28;20768;-81
2022/04/01 02:26:49;;;;;;;4.00;3.70;;;2.70;99.90;;;;;;5094569;28;20470;-82
2022/04/01 02:29:20;;;;;;;4.10;3.70;;;2.70;99.90;;;;;;5095114;28;20496;-84
2022/04/01 02:31:52;;;;;;;5.10;3.80;;;2.60;99.90;;;;;;5094978;28;20936;-81
2022/04/01 02:34:19;;;;;;;3.70;3.40;;;2.60;99.90;;;;;;5094735;28;20442;-83
2022/04/01 02:36:46;;;;;;;3.93;3.53;;;2.70;99.90;;;;;;5094674;28;20929;-80
2022/04/01 02:39:13;;;;;;;3.73;3.13;;;2.70;99.90;;;;;;5094265;28;20480;-82
2022/04/01 02:41:40;;;;;;;6.10;4.55;;;2.70;99.90;;;;;;5093901;28;20786;-78
2022/04/01 02:44:12;;;;;;;4.97;4.00;;;2.70;99.90;;;;;;5094764;28;20270;-82
2022/04/01 02:46:41;;;;;;;5.37;4.33;;;2.70;99.90;;;;;;5094481;28;20433;-80
2022/04/01 02:49:10;;;;;;;3.90;3.50;;;2.70;99.90;;;;;;5093934;28;20426;-80
2022/04/01 02:51:39;;;;;;;3.77;3.47;;;2.70;99.90;;;;;;5094305;28;20445;-79
2022/04/01 02:54:08;;;;;;;3.80;3.33;;;2.70;99.90;;;;;;5093989;28;20441;-80
2022/04/01 02:56:38;;;;;;;4.63;4.07;;;2.70;99.90;;;;;;5094724;28;20437;-80
2022/04/01 02:59:08;;;;;;;7.50;6.90;;;2.70;99.90;;;;;;5094058;28;20996;-80
2022/04/01 03:01:36;;;;;;;8.97;8.17;;;2.70;99.90;;;;;;5094450;28;20818;-77
2022/04/01 03:04:03;;;;;;;6.60;6.10;;;2.70;99.90;;;;;;5094522;28;20422;-80
2022/04/01 03:06:33;;;;;;;6.00;4.53;;;2.50;99.90;;;;;;5094346;28;20433;-78
2022/04/01 03:08:59;;;;;;;5.43;5.03;;;2.30;99.90;;;;;;5094083;28;20438;-81
2022/04/01 03:11:26;;;;;;;6.90;6.20;;;2.40;99.90;;;;;;5094276;28;20442;-81
2022/04/01 03:13:53;;;;;;;4.20;3.90;;;2.50;99.90;;;;;;5094085;28;20921;-84
2022/04/01 03:16:20;;;;;;;6.03;4.50;;;2.40;99.90;;;;;;5094004;28;20445;-79
2022/04/01 03:18:46;;;;;;;4.07;3.77;;;2.30;99.90;;;;;;5094229;28;20449;-81
2022/04/01 03:21:13;;;;;;;4.80;3.97;;;2.20;99.90;;;;;;5093431;28;20489;-80
2022/04/01 03:23:43;;;;;;;7.13;4.00;;;2.30;99.90;;;;;;5094138;28;20509;-85
2022/04/01 03:26:11;;;;;;;4.95;4.65;;;2.20;99.90;;;;;;5092887;28;20433;-82
2022/04/01 03:28:39;;;;;;;4.93;4.53;;;2.20;99.90;;;;;;5093916;28;20267;-86
2022/04/01 03:31:06;;;;;;;5.30;4.27;;;2.30;99.90;;;;;;5093904;28;20453;-81
2022/04/01 03:33:34;;;;;;;3.60;3.40;;;2.30;99.90;;;;;;5093555;28;20908;-80
2022/04/01 03:36:02;;;;;;;6.20;3.87;;;2.10;99.90;;;;;;5093258;28;20495;-81
2022/04/01 03:38:29;;;;;;;4.43;3.93;;;2.10;99.90;;;;;;5092282;28;20462;-81
2022/04/01 03:40:59;;;;;;;7.90;4.10;;;2.20;99.90;;;;;;5091880;28;20542;-81
2022/04/01 03:43:26;;;;;;;5.17;3.50;;;2.20;99.90;;;;;;5092411;28;20440;-85
2022/04/01 03:45:54;;;;;;;4.37;3.80;;;2.20;99.90;;;;;;5092229;28;20441;-78
2022/04/01 03:48:28;;;;;;;7.38;5.75;;;2.20;99.90;;;;;;5091721;28;20794;-82
2022/04/01 03:50:57;;;;;;;5.53;5.00;;;2.30;99.90;;;;;;5092972;28;20628;-80
2022/04/01 03:53:26;;;;;;;5.87;5.47;;;2.20;99.90;;;;;;5092566;28;20433;-80
2022/04/01 03:55:55;;;;;;;6.10;5.63;;;2.20;99.90;;;;;;5093412;28;20442;-81
2022/04/01 03:58:28;;;;;;;8.07;7.47;;;2.20;99.90;;;;;;5093684;28;20503;-80
2022/04/01 04:00:55;;;;;;;8.53;7.73;;;2.10;99.90;;;;;;5093327;28;20474;-83
2022/04/01 04:03:23;;;;;;;10.77;9.87;;;2.00;99.90;;;;;;5093414;28;20441;-84
2022/04/01 04:05:51;;;;;;;10.80;9.80;;;2.00;99.90;;;;;;5093212;28;20445;-84
2022/04/01 04:08:20;;;;;;;11.93;10.73;;;2.00;99.90;;;;;;5093181;28;20442;-84
2022/04/01 04:10:48;;;;;;;14.48;13.30;;;1.90;99.90;;;;;;5091745;28;20785;-81
2022/04/01 04:13:16;;;;;;;11.87;10.80;;;1.90;99.90;;;;;;5093156;28;20236;-84
2022/04/01 04:15:51;;;;;;;11.87;10.67;;;1.90;99.90;;;;;;5093310;28;20453;-84
2022/04/01 04:18:20;;;;;;;11.60;10.50;;;1.90;99.90;;;;;;5093194;28;20437;-81
2022/04/01 04:21:04;;;;;;;11.37;10.37;;;1.80;99.90;;;;;;5092197;28;20984;-76
2022/04/01 04:23:36;;;;;;;10.83;9.93;;;1.80;99.90;;;;;;5092887;28;20492;-76
2022/04/01 04:26:11;;;;;;;9.23;8.47;;;1.80;99.90;;;;;;5093263;28;20433;-78
2022/04/01 04:28:40;;;;;;;9.40;8.50;;;1.80;99.90;;;;;;5092739;28;20530;-77
2022/04/01 04:31:11;;;;;;;9.30;7.50;;;1.80;99.90;;;;;;5092749;28;20917;-77
2022/04/01 04:33:44;;;;;;;7.63;6.97;;;1.80;99.90;;;;;;5093169;28;20453;-76
2022/04/01 04:36:12;;;;;;;9.30;8.37;;;1.80;99.90;;;;;;5092513;28;20446;-79
2022/04/01 04:38:43;;;;;;;8.63;7.90;;;1.70;99.90;;;;;;5092919;28;20852;-77
2022/04/01 04:41:15;;;;;;;7.63;6.97;;;1.70;99.90;;;;;;5092587;28;20848;-86
2022/04/01 04:43:44;;;;;;;7.57;6.97;;;1.70;99.90;;;;;;5093453;28;20446;-86
2022/04/01 04:46:15;;;;;;;7.53;6.93;;;1.70;99.90;;;;;;5093091;28;20446;-84
2022/04/01 04:48:47;;;;;;;6.70;6.10;;;1.70;99.90;;;;;;5093195;28;20480;-85
2022/04/01 04:51:15;;;;;;;5.83;5.43;;;1.60;99.90;;;;;;5096005;28;20464;-84
2022/04/01 04:53:44;;;;;;;6.67;6.00;;;1.50;99.90;;;;;;5097131;28;20452;-82
2022/04/01 04:56:14;;;;;;;5.83;5.43;;;1.50;99.90;;;;;;5096814;28;20446;-82
2022/04/01 04:58:43;;;;;;;6.00;5.50;;;1.40;99.90;;;;;;5097228;28;20442;-81
2022/04/01 05:01:24;;;;;;;6.33;5.93;;;1.40;99.90;;;;;;5095288;28;20583;-81
2022/04/01 05:04:31;;;;;;;6.33;5.30;;;1.40;99.90;;;;;;5095547;28;20452;-82
2022/04/01 05:07:12;;;;;;;8.07;6.33;;;1.30;99.90;;;;;;5095672;28;20932;-81
2022/04/01 05:09:46;;;;;;;6.60;6.10;;;1.20;99.90;;;;;;5096506;28;20445;-82
2022/04/01 05:12:25;;;;;;;7.13;6.47;;;1.20;99.90;;;;;;5096955;28;20451;-81
2022/04/01 05:15:08;;;;;;;7.70;7.00;;;1.20;99.90;;;;;;5096509;28;20442;-81
2022/04/01 05:17:37;;;;;;;10.23;9.43;;;1.20;99.90;;;;;;5095700;28;20448;-81
2022/04/01 05:20:11;;;;;;;8.80;8.10;;;1.10;99.90;;;;;;5096158;28;20232;-82
2022/04/01 05:22:49;;;;;;;9.43;8.70;;;1.10;99.90;;;;;;5096730;28;20481;-77
2022/04/01 05:25:19;;;;;;;10.20;9.40;;;1.10;99.90;;;;;;5096079;28;20434;-81
2022/04/01 05:27:49;;;;;;;8.90;8.17;;;1.10;99.90;;;;;;5096190;28;20976;-80
2022/04/01 05:30:17;;;;;;;10.53;9.53;;;1.00;99.90;;;;;;5095957;28;20492;-80
2022/04/01 05:33:00;;;;;;;10.30;9.40;;;1.00;99.90;;;;;;5095763;28;20808;-78
2022/04/01 05:35:32;;;;;;;11.23;10.23;;;1.00;99.90;;;;;;5096004;28;20453;-76
2022/04/01 05:38:00;;;;;;;11.07;10.07;;;1.00;99.90;;;;;;5095831;28;20453;-80
2022/04/01 05:40:29;;;;;;;10.80;9.83;;;1.00;99.90;;;;;;5095591;28;20483;-75
2022/04/01 05:42:57;;;;;;;9.67;8.80;;;1.00;99.90;;;;;;5097074;28;20491;-81
2022/04/01 05:45:26;;;;;;;10.83;9.93;;;1.00;99.90;;;;;;5095876;28;20446;-83
2022/04/01 05:47:54;;;;;;;11.57;9.07;;;1.00;99.90;;;;;;5096012;28;20451;-78
2022/04/01 05:50:22;;;;;;;9.20;8.40;;;1.00;99.90;;;;;;5095208;28;20544;-80
2022/04/01 05:52:51;;;;;;;9.60;8.80;;;1.00;99.90;;;;;;5095658;28;20445;-79
2022/04/01 05:55:25;;;;;;;10.20;9.30;;;0.90;99.90;;;;;;5095435;28;20446;-78
2022/04/01 05:57:58;;;;;;;11.00;10.07;;;0.90;99.90;;;;;;5095252;28;20472;-76
2022/04/01 06:00:25;;;;;;;11.80;10.67;;;0.90;99.90;;;;;;5094834;28;20481;-78
2022/04/01 06:03:40;;;;;;;13.57;12.27;;;0.90;99.90;;;;;;5094468;28;20442;-79
2022/04/01 06:06:13;;;;;;;11.87;10.80;;;0.90;99.90;;;;;;5054850;28;20209;-78
2022/04/01 06:08:51;;;;;;;11.23;10.13;;;0.90;99.90;;;;;;5095453;28;20450;-78
2022/04/01 06:11:23;;;;;;;10.53;9.60;;;1.00;99.90;;;;;;5095278;28;20445;-82
2022/04/01 06:14:01;;;;;;;11.10;10.10;;;1.00;99.90;;;;;;5095722;28;20449;-80
2022/04/01 06:16:34;;;;;;;10.03;9.10;;;0.90;99.90;;;;;;5095076;28;20625;-82
2022/04/01 06:19:22;;;;;;;10.27;9.37;;;1.00;99.90;;;;;;5095118;28;20446;-85
2022/04/01 06:21:52;;;;;;;9.23;8.40;;;0.90;99.90;;;;;;5095244;28;20497;-86
2022/04/01 06:24:28;;;;;;;8.73;7.93;;;1.00;99.90;;;;;;5095115;28;20445;-79
2022/04/01 06:27:00;;;;;;;11.63;10.73;;;1.00;99.90;;;;;;5094397;28;20426;-76
2022/04/01 06:29:36;;;;;;;11.30;10.13;;;0.90;99.90;;;;;;5094897;28;20243;-76
2022/04/01 06:32:06;;;;;;;13.00;9.13;;;0.90;99.90;;;;;;5094775;28;20817;-78
2022/04/01 06:35:01;;;;;;;10.00;9.07;;;0.90;99.90;;;;;;5095360;28;20430;-84
2022/04/01 06:37:29;;;;;;;9.50;8.67;;;1.00;99.90;;;;;;5095073;28;20449;-82
2022/04/01 06:40:04;;;;;;;10.43;9.43;;;1.00;99.90;;;;;;5094334;28;20461;-79
2022/04/01 06:42:32;;;;;;;10.37;9.37;;;1.00;99.90;;;;;;5094662;28;20448;-78
2022/04/01 06:45:00;;;;;;;8.77;7.97;;;1.00;99.90;;;;;;5094023;28;20441;-81
2022/04/01 06:47:30;;;;;;;11.60;10.40;;;1.00;99.90;;;;;;5094641;28;20449;-91
2022/04/01 06:49:58;;;;;;;11.60;10.43;;;1.00;99.90;;;;;;5094822;28;20446;-79
2022/04/01 06:52:26;;;;;;;10.17;9.17;;;1.00;99.90;;;;;;5094452;28;20963;-79
2022/04/01 06:54:56;;;;;;;10.07;9.17;;;1.00;99.90;;;;;;5101560;28;20467;-84
2022/04/01 06:57:23;;;;;;;10.77;9.77;;;1.00;99.90;;;;;;5109400;28;20471;-84
2022/04/01 06:59:50;;;;;;;11.23;10.23;;;1.00;99.90;;;;;;5106180;28;20470;-83
2022/04/01 07:02:17;;;;;;;11.37;10.10;;;0.90;99.90;;;;;;5104169;28;20488;-82
2022/04/01 07:04:44;;;;;;;14.53;11.03;;;0.90;99.90;;;;;;5105356;28;20439;-79
2022/04/01 07:07:14;;;;;;;10.10;9.07;;;0.90;99.90;;;;;;5105168;28;20480;-82
2022/04/01 07:09:41;;;;;;;11.77;9.20;;;0.90;99.90;;;;;;5099711;28;20442;-87
2022/04/01 07:12:08;;;;;;;10.43;9.37;;;1.00;99.90;;;;;;5105280;28;20430;-83
2022/04/01 07:14:35;;;;;;;11.07;10.03;;;1.00;99.90;;;;;;5104821;28;20434;-82
2022/04/01 07:17:02;;;;;;;12.30;10.60;;;1.00;99.90;;;;;;5104717;28;20992;-85
2022/04/01 07:19:30;;;;;;;13.47;10.93;;;1.10;99.90;;;;;;5102388;28;20437;-84
2022/04/01 07:21:57;;;;;;;10.73;9.63;;;1.10;99.90;;;;;;5101400;28;20473;-82
2022/04/01 07:24:26;;;;;;;10.67;9.43;;;1.20;99.90;;;;;;5094252;28;20435;-82
2022/04/01 07:26:53;;;;;;;12.00;9.93;;;1.20;99.90;;;;;;5094390;28;20449;-81
2022/04/01 07:29:22;;;;;;;11.60;10.40;;;1.20;99.90;;;;;;5092359;28;20536;-80
2022/04/01 07:34:36;;;;;;;10.90;9.07;;;1.30;99.90;;;;;;5093760;28;20424;-82
2022/04/01 07:37:04;;;;;;;10.07;9.07;;;1.20;99.90;;;;;;5094433;28;20517;-83
2022/04/01 07:39:33;;;;;;;11.20;9.87;;;1.30;99.90;;;;;;5105473;28;20528;-88
2022/04/01 07:42:01;;;;;;;11.23;9.80;;;1.30;99.90;;;;;;5103164;28;20475;-85
2022/04/01 07:44:28;;;;;;;10.37;8.73;;;1.40;99.90;;;;;;5094465;28;20442;-89
2022/04/01 07:46:55;;;;;;;9.77;8.67;;;1.40;99.90;;;;;;5093383;28;20442;-83
2022/04/01 07:49:24;;;;;;;14.03;9.37;;;1.40;99.90;;;;;;5094321;28;20448;-84
2022/04/01 07:51:52;;;;;;;10.97;8.70;;;1.40;99.90;;;;;;5098814;28;20924;-85
2022/04/01 07:54:19;;;;;;;11.50;9.83;;;1.40;99.90;;;;;;5093997;28;20517;-80
2022/04/01 07:56:48;;;;;;;10.23;9.23;;;1.30;99.90;;;;;;5097225;28;20514;-85
2022/04/01 07:59:15;;;;;;;9.83;7.73;;;1.40;99.90;;;;;;5101869;28;20441;-82
2022/04/01 08:01:42;;;;;;;10.33;7.50;;;1.30;99.90;;;;;;5103387;28;20468;-81
2022/04/01 08:04:09;;;;;;;9.70;8.47;;;1.30;99.90;;;;;;5102711;28;20440;-84
2022/04/01 08:06:37;;;;;;;11.07;10.03;;;1.40;99.90;;;;;;5102843;28;20444;-83
2022/04/01 08:09:04;;;;;;;10.67;9.57;;;1.40;99.90;;;;;;5104407;28;20437;-84
2022/04/01 08:11:31;;;;;;;11.43;10.30;;;1.40;99.90;;;;;;5101179;28;20884;-85
2022/04/01 08:13:59;;;;;;;11.03;9.87;;;1.40;99.90;;;;;;5105313;28;20932;-85
2022/04/01 08:16:34;;;;;;;12.17;9.43;;;1.50;99.90;;;;;;5113982;28;20444;-88
2022/04/01 08:19:07;;;;;;;11.40;9.27;;;1.40;99.90;;;;;;5114534;28;20456;-85
2022/04/01 08:21:37;;;;;;;11.13;9.93;;;1.50;99.90;;;;;;5115824;28;20488;-84
2022/04/01 08:24:07;;;;;;;9.63;8.70;;;1.60;99.90;;;;;;5117455;28;20453;-85
2022/04/01 08:26:37;;;;;;;8.63;7.83;;;1.50;99.90;;;;;;5118290;28;20473;-89
2022/04/01 08:29:07;;;;;;;9.90;8.83;;;1.50;99.90;;;;;;5118576;28;20457;-86
2022/04/01 08:31:37;;;;;;;9.70;8.67;;;1.60;99.90;;;;;;5118719;28;20516;-88
2022/04/01 08:34:04;;;;;;;10.33;9.33;;;1.50;99.90;;;;;;5118728;27;20436;-87
2022/04/01 08:36:37;;;;;;;10.00;8.73;;;1.50;99.90;;;;;;5118609;28;20448;-90
2022/04/01 08:39:06;;;;;;;8.37;7.57;;;1.50;99.90;;;;;;5119252;28;20808;-85
2022/04/01 08:41:41;;;;;;;9.07;7.97;;;1.50;99.90;;;;;;5118639;28;20491;-90
2022/04/01 08:44:15;;;;;;;11.03;8.33;;;1.70;99.90;;;;;;5115446;28;20930;-90
2022/04/01 08:46:43;;;;;;;11.57;8.43;;;1.70;99.90;;;;;;5098400;28;20475;-87
2022/04/01 08:49:12;;;;;;;10.03;7.87;;;1.50;99.90;;;;;;5097880;28;20461;-85
2022/04/01 08:51:42;;;;;;;12.80;9.10;;;1.60;99.90;;;;;;5098403;28;20464;-89
2022/04/01 08:54:17;;;;;;;9.00;8.10;;;1.60;99.90;;;;;;5099098;28;20446;-90
2022/04/01 08:56:50;;;;;;;9.83;7.37;;;1.70;99.90;;;;;;5098048;28;20944;-91
2022/04/01 08:59:18;;;;;;;11.13;8.03;;;1.70;99.90;;;;;;5098309;28;20501;-86
2022/04/01 09:01:48;;;;;;;7.90;7.10;;;1.80;99.90;;;;;;5099957;28;20837;-89
2022/04/01 09:04:23;;;;;;;8.37;7.27;;;2.00;99.90;;;;;;5102317;28;20437;-91
2022/04/01 09:06:51;;;;;;;9.03;7.10;;;1.90;99.90;;;;;;5101350;28;20456;-89
2022/04/01 09:09:27;;;;;;;8.83;7.47;;;1.90;99.90;;;;;;5104273;28;20493;-87
2022/04/01 09:12:13;;;;;;;8.60;7.33;;;1.90;99.90;;;;;;5105627;28;20779;-87
2022/04/01 09:14:53;;;;;;;7.10;6.40;;;1.90;99.90;;;;;;5103618;28;20452;-90
2022/04/01 09:17:22;;;;;;;7.63;6.93;;;1.90;99.90;;;;;;5102647;28;20449;-89
2022/04/01 09:19:52;;;;;;;9.43;6.17;;;2.00;99.90;;;;;;5104903;28;20442;-89
2022/04/01 09:22:26;;;;;;;8.40;6.80;;;2.00;99.90;;;;;;5105154;28;20520;-90
2022/04/01 09:25:02;;;;;;;7.83;6.40;;;2.10;99.90;;;;;;5116435;28;20469;-90
2022/04/01 09:27:43;;;;;;;7.43;6.40;;;2.20;99.90;;;;;;5118072;28;20462;-90
2022/04/01 09:30:20;;;;;;;11.90;6.83;;;2.20;99.90;;;;;;5117508;28;20461;-90
2022/04/01 09:32:55;;;;;;;6.20;5.60;;;2.20;99.90;;;;;;5117616;28;20456;-88
2022/04/01 09:35:26;;;;;;;6.73;6.10;;;2.20;99.90;;;;;;5117442;28;20461;-90
2022/04/01 09:38:01;;;;;;;7.90;7.10;;;2.20;99.90;;;;;;5115073;28;20444;-89
2022/04/01 09:40:29;;;;;;;6.50;6.00;;;2.40;99.90;;;;;;5116941;28;20276;-89
2022/04/01 09:42:57;;;;;;;6.37;5.63;;;2.20;99.90;;;;;;5116431;28;20491;-83
2022/04/01 09:45:28;;;;;;;6.70;5.97;;;2.20;99.90;;;;;;5116442;28;20441;-88
2022/04/01 09:48:04;;;;;;;6.07;5.57;;;2.40;99.90;;;;;;5116773;28;20912;-83
2022/04/01 09:50:40;;;;;;;6.77;5.63;;;2.40;99.90;;;;;;5117032;28;20476;-87
2022/04/01 09:53:09;;;;;;;6.73;6.13;;;2.30;99.90;;;;;;5116419;28;20445;-85
2022/04/01 09:55:44;;;;;;;9.50;7.00;;;2.40;99.90;;;;;;5116529;28;20444;-86
2022/04/01 09:58:20;;;;;;;7.50;5.90;;;2.50;99.90;;;;;;5116405;28;20861;-89
2022/04/01 10:00:48;;;;;;;6.30;5.70;;;2.50;99.90;;;;;;5116244;28;20441;-88
2022/04/01 10:03:19;;;;;;;5.87;5.37;;;2.40;99.90;;;;;;5116048;28;20484;-86
2022/04/01 10:05:46;;;;;;;5.20;4.80;;;2.30;99.90;;;;;;5103487;28;20437;-84
2022/04/01 10:08:14;;;;;;;5.57;5.07;;;2.40;99.90;;;;;;5100413;28;20880;-82
2022/04/01 10:10:45;;;;;;;7.17;5.37;;;2.50;99.90;;;;;;5095295;28;20457;-83
2022/04/01 10:13:18;;;;;;;5.80;5.30;;;2.40;99.90;;;;;;5095544;28;20499;-87
2022/04/01 10:15:53;;;;;;;8.30;5.50;;;2.40;99.90;;;;;;5095853;28;20438;-88
2022/04/01 10:18:22;;;;;;;5.87;5.30;;;2.30;99.90;;;;;;5103547;28;20804;-84
2022/04/01 10:20:54;;;;;;;6.73;5.70;;;2.40;99.90;;;;;;5095876;28;20513;-86
2022/04/01 10:23:27;;;;;;;5.43;4.93;;;2.30;99.90;;;;;;5095623;28;20476;-86
2022/04/01 10:26:00;;;;;;;6.28;5.68;;;2.30;99.90;;;;;;5108581;28;20427;-86
2022/04/01 10:28:29;;;;;;;5.70;5.17;;;2.30;99.90;;;;;;5106978;28;20230;-87
2022/04/01 10:30:58;;;;;;;4.23;3.87;;;2.30;99.90;;;;;;5115609;28;20451;-85
2022/04/01 10:33:29;;;;;;;5.33;4.83;;;2.40;99.90;;;;;;5115820;28;20448;-85
2022/04/01 10:35:56;;;;;;;6.03;4.33;;;2.30;99.90;;;;;;5115641;28;20481;-86
2022/04/01 10:38:28;;;;;;;4.20;3.80;;;2.40;99.90;;;;;;5115638;28;20449;-86
2022/04/01 10:41:06;;;;;;;8.63;4.40;;;2.40;99.90;;;;;;5115639;28;20459;-84
2022/04/01 10:43:39;;;;;;;4.87;3.30;;;2.60;99.90;;;;;;5115282;27;21169;-83
2022/04/01 10:46:10;;;;;;;8.27;4.10;;;2.70;99.90;;;;;;5115769;28;20429;-85
2022/04/01 10:51:39;;;;;;;8.67;3.67;;;2.90;99.90;;;;;;5118791;28;20443;-84
2022/04/01 10:54:42;;;;;;;7.27;2.73;;;2.90;99.90;;;;;;5115638;28;20444;-85
2022/04/01 10:57:10;;;;;;;7.37;3.90;;;3.00;99.90;;;;;;5115320;28;20460;-86
2022/04/01 10:59:41;;;;;;;5.97;3.27;;;3.10;99.90;;;;;;5115582;28;20464;-88
2022/04/01 11:02:10;;;;;;;5.73;3.20;;;3.20;99.90;;;;;;5114784;28;20484;-85
2022/04/01 11:04:39;;;;;;;4.53;3.60;;;3.30;99.90;;;;;;5115055;28;20448;-88
2022/04/01 11:07:11;;;;;;;7.77;3.60;;;3.60;99.90;;;;;;5114364;28;20445;-79
2022/04/01 11:09:42;;;;;;;4.07;3.00;;;3.60;99.90;;;;;;5114710;28;20452;-83
2022/04/01 11:12:31;;;;;;;6.63;3.73;;;3.60;99.90;;;;;;5114821;28;20444;-84
2022/04/01 11:15:12;;;;;;;5.35;3.42;;;3.60;99.90;;;;;;5113998;28;20444;-83
2022/04/01 11:18:06;;;;;;;5.23;3.40;;;3.60;99.90;;;;;;5114503;28;20200;-79
2022/04/01 11:20:39;;;;;;;5.93;3.57;;;3.60;99.90;;;;;;5094317;28;20476;-84
2022/04/01 11:23:10;;;;;;;7.33;3.13;;;3.60;99.90;;;;;;5114235;28;20579;-83
2022/04/01 11:26:01;;;;;;;7.83;3.57;;;3.70;99.90;;;;;;5114457;28;20817;-85
2022/04/01 11:28:30;;;;;;;7.53;3.30;;;3.60;99.90;;;;;;5114571;28;20460;-85
2022/04/01 11:31:10;;;;;;;3.83;3.07;;;3.40;99.90;;;;;;5114639;28;21263;-86
2022/04/01 11:33:39;;;;;;;7.87;3.87;;;3.60;99.90;;;;;;5114418;28;20440;-86
2022/04/01 11:36:07;;;;;;;6.53;3.10;;;3.50;99.90;;;;;;5114155;28;20456;-85
2022/04/01 11:38:34;;;;;;;9.23;3.90;;;3.60;99.90;;;;;;5108252;28;20382;-86
2022/04/01 11:41:03;;;;;;;6.03;3.47;;;3.60;99.90;;;;;;5096185;28;20220;-85
2022/04/01 11:43:33;;;;;;;4.03;3.63;;;3.50;99.90;;;;;;5109622;28;20564;-83
2022/04/01 11:46:03;;;;;;;7.47;4.10;;;3.50;99.90;;;;;;5114207;28;20432;-84
2022/04/01 11:48:32;;;;;;;6.70;3.90;;;3.50;99.90;;;;;;5113704;28;20437;-82
2022/04/01 11:51:04;;;;;;;5.67;3.27;;;3.50;99.90;;;;;;5094556;28;20457;-83
2022/04/01 11:53:35;;;;;;;5.67;2.90;;;3.50;99.90;;;;;;5093688;28;20434;-83
2022/04/01 11:56:03;;;;;;;4.37;3.20;;;3.60;99.90;;;;;;5093629;28;20481;-88
2022/04/01 11:58:36;;;;;;;4.70;2.90;;;3.70;99.90;;;;;;5093732;28;20913;-80
2022/04/01 12:01:03;;;;;;;4.60;2.47;;;3.80;99.90;;;;;;5092779;28;20446;-81
2022/04/01 12:03:31;;;;;;;2.80;2.60;;;3.80;99.90;;;;;;5093357;28;20462;-85
2022/04/01 12:08:45;;;;;;;5.10;3.47;;;3.70;99.90;;;;;;5092971;28;20528;-80
2022/04/01 12:11:13;;;;;;;3.43;3.07;;;3.70;99.90;;;;;;5093650;28;20450;-87
2022/04/01 12:13:50;;;;;;;7.93;3.60;;;3.70;99.90;;;;;;5090953;28;20444;-81
2022/04/01 12:16:21;;;;;;;5.73;3.00;;;3.70;99.90;;;;;;5111855;28;20501;-86
2022/04/01 12:18:51;;;;;;;9.27;3.30;;;3.70;99.90;;;;;;5113887;28;20448;-84
2022/04/01 12:21:23;;;;;;;4.70;3.43;;;3.80;99.90;;;;;;5114402;28;20444;-85
2022/04/01 12:23:53;;;;;;;3.30;2.97;;;3.90;99.90;;;;;;5114963;28;20504;-91
2022/04/01 12:26:28;;;;;;;6.47;3.60;;;4.10;99.90;;;;;;5114213;28;20935;-87
2022/04/01 12:28:56;;;;;;;6.53;4.40;;;4.00;99.90;;;;;;5102362;28;20448;-87
2022/04/01 12:31:25;;;;;;;3.87;2.90;;;4.00;99.90;;;;;;5093831;28;20279;-86
2022/04/01 12:33:55;;;;;;;2.50;2.40;;;3.90;99.90;;;;;;5093966;28;20933;-87
2022/04/01 12:36:38;;;;;;;4.80;2.73;;;4.00;99.90;;;;;;5094490;28;20441;-84
2022/04/01 12:39:08;;;;;;;8.30;3.80;;;4.10;99.90;;;;;;5106350;28;20462;-86
2022/04/01 12:41:35;;;;;;;9.17;3.63;;;4.20;99.90;;;;;;5107806;28;20453;-85
2022/04/01 12:44:12;;;;;;;4.47;3.40;;;4.10;99.90;;;;;;5109987;28;20491;-87
2022/04/01 12:46:39;;;;;;;4.83;3.10;;;4.20;99.90;;;;;;5119776;28;20460;-87
2022/04/01 12:49:12;;;;;;;7.33;3.33;;;4.30;99.90;;;;;;5120841;28;20442;-84
2022/04/01 12:51:50;;;;;;;4.40;2.70;;;4.20;99.90;;;;;;5095337;28;20430;-86
2022/04/01 12:54:24;;;;;;;3.53;2.57;;;4.30;99.90;;;;;;5093842;28;20944;-87
2022/04/01 12:56:58;;;;;;;4.70;2.70;;;4.30;99.90;;;;;;5093723;28;20441;-87
2022/04/01 12:59:26;;;;;;;2.60;2.20;;;4.50;99.90;;;;;;5093568;28;20454;-90
2022/04/01 13:02:02;;;;;;;4.63;2.77;;;4.60;99.90;;;;;;5105825;28;20457;-88
2022/04/01 13:04:38;;;;;;;5.40;3.00;;;4.60;99.90;;;;;;5097560;28;20471;-89
2022/04/01 13:07:12;;;;;;;6.37;3.10;;;4.60;99.90;;;;;;5113929;28;20912;-88
2022/04/01 13:09:52;;;;;;;5.23;3.37;;;4.60;99.90;;;;;;5114359;28;20435;-87
2022/04/01 13:12:23;;;;;;;5.67;4.77;;;4.60;99.90;;;;;;5116670;28;20432;-84
2022/04/01 13:14:58;;;;;;;6.13;3.00;;;4.60;99.90;;;;;;5117394;28;20445;-83
2022/04/01 13:17:25;;;;;;;4.70;2.37;;;4.50;99.90;;;;;;5117159;28;20440;-88
2022/04/01 13:19:53;;;;;;;2.87;2.60;;;4.60;99.90;;;;;;5116878;28;20425;-88
2022/04/01 13:22:24;;;;;;;5.53;3.40;;;4.50;99.90;;;;;;5117928;28;20476;-88